Time;durP1;ratioP1;P1;durP2;ratioP2;P2;SDS_P1;SDS_P2;PMS_P1;PMS_P2;Temp;Humidity;BMP_temperature;BMP_pressure;BME280_temperature;BME280_humidity;BME280_pressure;Samples;Min_cycle;Max_cycle;Signal;HPM_P1;HPM_P2
2021/04/20 00:00:47;;;;;;;24.07;19.70;;;5.00;1.40;;;5.84;100.00;95379.61;640560;220;23523;-71
2021/04/20 00:03:16;;;;;;;29.83;25.95;;;5.00;1.40;;;5.87;100.00;95379.10;633939;220;31836;-71
2021/04/20 00:05:45;;;;;;;27.17;23.20;;;5.00;1.40;;;5.91;100.00;95379.81;640255;221;24025;-72
2021/04/20 00:08:14;;;;;;;31.42;26.77;;;4.90;1.40;;;5.96;100.00;95378.73;634213;221;31738;-70
2021/04/20 00:10:43;;;;;;;30.30;23.33;;;4.90;1.40;;;5.93;100.00;95379.43;641677;219;23469;-70
2021/04/20 00:13:12;;;;;;;27.87;21.50;;;5.00;1.40;;;6.00;100.00;95376.13;668537;211;26152;-70
2021/04/20 00:15:41;;;;;;;27.80;22.80;;;4.90;1.40;;;5.99;100.00;95377.70;666394;211;24470;-70
2021/04/20 00:18:10;;;;;;;27.87;21.67;;;5.00;1.40;;;5.95;100.00;95378.16;642454;220;24506;-70
2021/04/20 00:20:39;;;;;;;28.53;21.97;;;5.00;1.40;;;5.97;100.00;95377.61;654189;215;24850;-71
2021/04/20 00:23:08;;;;;;;30.00;23.40;;;5.00;1.40;;;5.97;100.00;95370.66;641215;220;24556;-71
2021/04/20 00:25:38;;;;;;;28.87;23.33;;;5.00;1.40;;;5.99;100.00;95370.66;641063;222;24486;-71
2021/04/20 00:28:07;;;;;;;30.43;24.70;;;5.10;1.40;;;5.95;100.00;95370.78;654313;215;24481;-70
2021/04/20 00:30:36;;;;;;;30.50;23.07;;;5.10;1.40;;;5.97;100.00;95367.49;644340;221;24500;-71
2021/04/20 00:35:51;;;;;;;34.83;29.33;;;5.10;1.40;;;5.86;100.00;95371.30;618224;225;32581;-72
2021/04/20 00:38:20;;;;;;;36.08;30.35;;;5.10;1.40;;;5.91;100.00;95372.22;610037;230;32088;-72
2021/04/20 00:40:49;;;;;;;31.60;24.60;;;5.10;1.40;;;5.92;100.00;95367.16;615810;229;23529;-71
2021/04/20 00:43:19;;;;;;;29.97;23.40;;;5.10;1.40;;;5.93;100.00;95363.23;616008;230;24604;-71
2021/04/20 00:45:48;;;;;;;31.97;23.57;;;5.10;1.40;;;6.04;100.00;95367.98;614762;230;24604;-71
2021/04/20 00:48:17;;;;;;;26.87;21.50;;;5.00;1.40;;;6.09;100.00;95361.77;615750;230;24729;-71
2021/04/20 00:50:46;;;;;;;28.37;23.10;;;5.00;1.40;;;6.01;100.00;95358.16;614448;230;24564;-71
2021/04/20 00:53:15;;;;;;;32.63;23.40;;;5.10;1.40;;;5.94;100.00;95356.98;615145;230;24652;-71
2021/04/20 00:55:44;;;;;;;33.33;21.90;;;5.00;1.40;;;5.89;100.00;95353.38;616648;230;24596;-71
2021/04/20 00:58:13;;;;;;;30.93;24.33;;;5.00;1.40;;;5.90;100.00;95354.96;614900;229;25199;-71
2021/04/20 01:00:42;;;;;;;40.95;31.77;;;5.10;1.40;;;5.93;100.00;95355.42;609785;229;32132;-72
2021/04/20 01:03:11;;;;;;;33.97;27.10;;;5.00;1.40;;;5.90;100.00;95356.68;614925;230;23557;-72
2021/04/20 01:05:40;;;;;;;34.23;26.40;;;5.00;1.40;;;5.80;100.00;95352.62;616242;230;24676;-72
2021/04/20 01:08:10;;;;;;;33.57;24.83;;;4.90;1.40;;;5.82;100.00;95351.26;613580;230;24616;-72
2021/04/20 01:10:39;;;;;;;36.00;25.67;;;4.90;1.40;;;5.83;100.00;95349.59;615800;229;24575;-71
2021/04/20 01:13:08;;;;;;;31.80;26.20;;;4.90;1.40;;;5.86;100.00;95349.89;615012;230;26014;-72
2021/04/20 01:15:37;;;;;;;29.60;25.87;;;5.00;1.40;;;5.91;100.00;95350.22;613934;230;25672;-72
2021/04/20 01:18:12;;;;;;;38.75;32.30;;;5.00;1.40;;;5.94;100.00;95349.34;610877;229;32238;-71
2021/04/20 01:20:42;;;;;;;34.60;27.87;;;5.00;1.40;;;5.91;100.00;95352.05;617450;230;23505;-71
2021/04/20 01:23:12;;;;;;;41.53;34.07;;;5.10;1.40;;;6.02;100.00;95348.95;609122;231;32384;-71
2021/04/20 01:25:41;;;;;;;42.47;30.10;;;5.10;1.40;;;6.06;100.00;95355.81;616701;229;24583;-71
2021/04/20 01:28:10;;;;;;;37.60;32.95;;;5.10;1.40;;;6.12;100.00;95356.42;610414;229;32168;-71
2021/04/20 01:30:39;;;;;;;38.47;29.23;;;5.20;1.40;;;6.17;100.00;95361.75;616470;230;23529;-71
2021/04/20 01:35:51;;;;;;;43.33;35.20;;;5.20;1.40;;;6.23;100.00;95356.91;646502;212;31582;-70
2021/04/20 01:38:20;;;;;;;41.07;30.77;;;5.20;1.40;;;6.26;100.00;95353.13;640158;221;23640;-69
2021/04/20 01:40:49;;;;;;;33.23;27.37;;;5.20;1.40;;;6.24;100.00;95354.16;640547;221;25619;-69
2021/04/20 01:45:52;;;;;;;35.42;30.37;;;5.20;1.40;;;6.23;100.00;95356.11;646480;212;31616;-70
2021/04/20 01:48:21;;;;;;;33.23;28.83;;;5.20;1.40;;;6.21;100.00;95357.15;640650;221;23500;-70
2021/04/20 01:50:50;;;;;;;31.03;25.17;;;5.20;1.40;;;6.19;100.00;95356.41;640372;220;24529;-70
2021/04/20 01:53:19;;;;;;;34.90;27.57;;;5.20;1.40;;;6.28;100.00;95359.68;640952;220;25035;-71
2021/04/20 01:55:48;;;;;;;43.15;34.30;;;5.20;1.40;;;6.31;100.00;95358.59;634155;220;31784;-71
2021/04/20 01:58:17;;;;;;;37.47;29.53;;;5.20;1.40;;;6.32;100.00;95356.38;640322;221;23468;-71
2021/04/20 02:00:46;;;;;;;37.87;26.77;;;5.20;1.40;;;6.31;100.00;95356.27;641023;220;25116;-70
2021/04/20 02:03:15;;;;;;;40.95;32.88;;;5.20;1.40;;;6.41;100.00;95357.14;635116;220;31764;-71
2021/04/20 02:05:45;;;;;;;33.33;26.00;;;5.20;1.40;;;6.39;100.00;95352.20;640993;221;23453;-70
2021/04/20 02:08:15;;;;;;;36.57;26.70;;;5.20;1.40;;;6.35;100.00;95354.44;641555;220;24467;-71
2021/04/20 02:10:43;;;;;;;37.80;32.63;;;5.20;1.40;;;6.27;100.00;95356.89;636117;220;31893;-71
2021/04/20 02:13:12;;;;;;;34.00;26.03;;;5.20;1.40;;;6.18;100.00;95353.66;668665;211;32267;-70
2021/04/20 02:15:41;;;;;;;29.33;24.93;;;5.20;1.40;;;6.06;100.00;95353.02;653997;216;24462;-71
2021/04/20 02:18:10;;;;;;;34.15;29.00;;;5.20;1.40;;;6.15;100.00;95358.64;647954;216;31611;-71
2021/04/20 02:20:39;;;;;;;32.30;26.20;;;5.20;1.40;;;6.10;100.00;95349.48;668210;211;23398;-70
2021/04/20 02:23:08;;;;;;;32.53;24.13;;;5.20;1.40;;;6.02;100.00;95354.17;654293;216;24774;-71
2021/04/20 02:25:37;;;;;;;29.60;23.80;;;5.10;1.40;;;6.00;100.00;95351.92;654013;215;24475;-71
2021/04/20 02:28:06;;;;;;;29.40;23.87;;;5.10;1.40;;;6.11;100.00;95350.83;649729;217;24539;-70
2021/04/20 02:30:35;;;;;;;33.30;25.47;;;5.10;1.40;;;6.12;100.00;95351.79;653910;216;26995;-70
2021/04/20 02:35:51;;;;;;;42.17;32.33;;;5.10;1.40;;;6.21;100.00;95353.27;646354;216;31602;-70
2021/04/20 02:38:20;;;;;;;38.17;30.50;;;5.10;1.40;;;6.26;100.00;95355.55;639095;221;23471;-70
2021/04/20 02:40:49;;;;;;;34.60;26.40;;;5.10;1.40;;;6.18;100.00;95358.56;640935;220;24581;-71
2021/04/20 02:43:18;;;;;;;34.23;26.37;;;5.10;1.40;;;6.24;100.00;95354.00;639857;221;24501;-69
2021/04/20 02:45:48;;;;;;;33.00;25.90;;;5.10;1.40;;;6.08;100.00;95354.56;640480;220;24567;-69
2021/04/20 02:48:17;;;;;;;37.17;31.40;;;5.20;1.40;;;6.13;100.00;95350.12;635854;220;31709;-70
2021/04/20 02:50:46;;;;;;;35.77;28.97;;;5.20;1.40;;;6.13;100.00;95354.86;650263;218;23488;-71
2021/04/20 02:53:15;;;;;;;41.43;28.50;;;5.20;1.40;;;6.12;100.00;95349.75;669255;211;31846;-70
2021/04/20 02:55:44;;;;;;;30.77;24.80;;;5.20;1.40;;;5.96;100.00;95350.44;668945;211;24438;-70
2021/04/20 02:58:16;;;;;;;34.37;26.40;;;5.20;1.40;;;5.93;100.00;95344.13;667237;211;27886;-71
2021/04/20 03:00:45;;;;;;;33.07;24.47;;;5.20;1.40;;;5.93;100.00;95341.97;669331;211;24430;-70
2021/04/20 03:03:15;;;;;;;32.33;24.57;;;5.20;1.40;;;5.93;100.00;95338.27;668953;211;24440;-71
2021/04/20 03:05:43;;;;;;;35.33;25.67;;;5.20;1.40;;;5.96;100.00;95338.48;640834;220;30881;-71
2021/04/20 03:08:13;;;;;;;32.00;25.13;;;5.20;1.40;;;5.93;100.00;95339.88;643617;220;24536;-70
2021/04/20 03:10:42;;;;;;;34.73;26.53;;;5.20;1.40;;;6.01;100.00;95333.88;641931;220;24560;-71
2021/04/20 03:13:11;;;;;;;31.80;25.50;;;5.20;1.40;;;5.99;100.00;95332.98;639484;221;24540;-71
2021/04/20 03:15:40;;;;;;;28.90;24.67;;;5.20;1.40;;;5.96;100.00;95333.38;667493;211;24480;-70
2021/04/20 03:18:09;;;;;;;30.90;25.23;;;5.20;1.40;;;5.96;100.00;95331.55;642948;221;24521;-71
2021/04/20 03:20:38;;;;;;;41.27;28.83;;;5.10;1.40;;;5.99;100.00;95332.82;628726;224;25728;-71
2021/04/20 03:23:07;;;;;;;33.80;27.90;;;5.20;1.40;;;6.03;100.00;95332.41;654824;215;24544;-70
2021/04/20 03:25:36;;;;;;;38.43;26.20;;;5.10;1.40;;;5.97;100.00;95335.37;656076;216;24477;-71
2021/04/20 03:28:05;;;;;;;35.23;26.43;;;5.10;1.40;;;5.91;100.00;95335.64;653799;216;24453;-70
2021/04/20 03:30:34;;;;;;;35.47;26.17;;;5.10;1.40;;;5.95;100.00;95340.59;633245;225;27835;-70
2021/04/20 03:36:12;;;;;;;41.40;32.60;;;5.10;1.40;;;6.09;100.00;95336.42;646923;216;42206;-70
2021/04/20 03:38:53;;;;;;;35.30;29.27;;;5.10;1.40;;;6.09;100.00;95334.05;641984;220;23542;-69
2021/04/20 03:41:24;;;;;;;39.70;28.40;;;5.10;1.40;;;6.08;100.00;95331.42;641681;220;24596;-70
2021/04/20 03:43:53;;;;;;;38.73;28.83;;;5.10;1.40;;;6.07;100.00;95333.73;639180;221;24566;-70
2021/04/20 03:46:22;;;;;;;36.10;27.90;;;5.10;1.40;;;6.07;100.00;95334.66;641582;221;24499;-70
2021/04/20 03:48:56;;;;;;;34.77;25.60;;;5.10;1.40;;;6.00;100.00;95330.72;641022;221;24493;-71
2021/04/20 03:51:28;;;;;;;33.57;25.90;;;5.10;1.40;;;6.03;100.00;95331.55;638150;221;24499;-72
2021/04/20 03:53:57;;;;;;;36.30;26.97;;;5.10;1.40;;;5.94;100.00;95332.77;639780;220;24513;-71
2021/04/20 03:56:26;;;;;;;39.70;33.58;;;5.10;1.40;;;5.91;100.00;95330.20;634342;221;31781;-70
2021/04/20 04:01:33;;;;;;;42.70;34.75;;;5.10;1.40;;;5.81;100.00;95330.45;645919;216;31571;-72
2021/04/20 04:06:36;;;;;;;42.50;35.17;;;5.10;1.40;;;5.80;100.00;95332.82;646142;212;31772;-71
2021/04/20 04:09:06;;;;;;;36.67;29.63;;;5.10;1.40;;;5.81;100.00;95331.03;640562;221;23785;-71
2021/04/20 04:11:35;;;;;;;37.07;28.20;;;5.10;1.40;;;5.87;100.00;95330.03;641342;220;24517;-72
2021/04/20 04:14:04;;;;;;;38.17;28.70;;;5.10;1.40;;;5.89;100.00;95330.08;641373;221;24643;-72
2021/04/20 04:16:33;;;;;;;37.73;28.00;;;5.10;1.40;;;5.85;100.00;95331.17;633085;221;24605;-72
2021/04/20 04:19:02;;;;;;;38.03;28.37;;;5.10;1.40;;;5.85;100.00;95331.02;642983;220;24505;-71
2021/04/20 04:21:44;;;;;;;36.00;28.27;;;5.10;1.40;;;5.86;100.00;95331.28;658586;215;25968;-71
2021/04/20 04:24:10;;;;;;;37.00;29.60;;;5.10;1.40;;;5.95;100.00;95337.47;641087;220;30083;-72
2021/04/20 04:26:39;;;;;;;42.13;28.50;;;5.10;1.40;;;5.93;100.00;95337.51;641555;220;26694;-72
2021/04/20 04:29:10;;;;;;;33.80;26.63;;;5.10;1.40;;;5.93;100.00;95338.00;629461;225;24544;-71
2021/04/20 04:31:37;;;;;;;31.80;26.50;;;5.20;1.40;;;5.93;100.00;95336.54;655021;215;24462;-72
2021/04/20 04:35:51;;;;;;;47.22;36.45;;;5.10;1.40;;;5.98;100.00;95333.80;648313;212;42169;-71
2021/04/20 04:38:21;;;;;;;43.13;30.47;;;5.20;1.40;;;6.02;100.00;95329.41;640806;221;23504;-71
2021/04/20 04:40:49;;;;;;;45.10;37.28;;;5.20;1.40;;;6.07;100.00;95330.13;635490;221;31800;-71
2021/04/20 04:43:18;;;;;;;40.27;30.43;;;5.20;1.40;;;6.09;100.00;95327.80;639817;220;27130;-71
2021/04/20 04:48:26;;;;;;;46.05;37.80;;;5.30;1.40;;;6.25;100.00;95328.05;645450;216;31621;-71
2021/04/20 04:50:55;;;;;;;41.33;33.03;;;5.30;1.40;;;6.23;100.00;95338.99;641056;220;23472;-70
2021/04/20 04:53:24;;;;;;;42.03;31.17;;;5.30;1.40;;;6.25;100.00;95345.59;641414;219;24582;-71
2021/04/20 04:55:56;;;;;;;40.00;31.27;;;5.30;1.40;;;6.31;100.00;95345.61;641966;220;24525;-71
2021/04/20 05:01:00;;;;;;;46.40;36.42;;;5.30;1.40;;;6.13;100.00;95352.06;645713;216;31618;-72
2021/04/20 05:03:29;;;;;;;40.20;30.90;;;5.30;1.40;;;6.34;100.00;95357.03;642461;219;25596;-72
2021/04/20 05:05:58;;;;;;;35.17;28.23;;;5.30;1.40;;;6.29;100.00;95359.52;643491;220;26667;-72
2021/04/20 05:08:27;;;;;;;34.43;26.90;;;5.30;1.40;;;6.45;100.00;95364.00;641366;220;24626;-71
2021/04/20 05:11:01;;;;;;;37.13;28.23;;;5.40;1.40;;;6.36;100.00;95361.16;641483;220;25605;-71
2021/04/20 05:13:30;;;;;;;36.30;28.03;;;5.40;1.40;;;6.33;100.00;95356.23;668260;211;24421;-72
2021/04/20 05:16:04;;;;;;;34.00;27.93;;;5.40;1.40;;;6.31;100.00;95354.71;670171;211;24473;-70
2021/04/20 05:18:33;;;;;;;32.97;25.70;;;5.50;1.40;;;6.31;100.00;95350.13;667516;211;24402;-72
2021/04/20 05:21:02;;;;;;;38.13;27.20;;;5.50;1.40;;;6.44;100.00;95349.53;668611;211;24423;-69
2021/04/20 05:23:31;;;;;;;38.20;27.80;;;5.70;1.40;;;6.58;100.00;95354.56;669169;211;24481;-71
2021/04/20 05:26:00;;;;;;;35.10;27.00;;;5.70;1.40;;;6.59;100.00;95351.33;668818;211;30829;-71
2021/04/20 05:28:29;;;;;;;40.47;33.67;;;5.70;1.40;;;6.66;100.00;95346.42;662433;211;42528;-70
2021/04/20 05:30:58;;;;;;;36.80;29.43;;;5.70;1.40;;;6.79;100.00;95349.02;668830;211;23398;-71
2021/04/20 05:35:50;;;;;;;41.33;33.88;;;5.80;1.40;;;6.69;100.00;95355.92;644656;212;32427;-70
2021/04/20 05:38:19;;;;;;;38.57;30.17;;;5.80;1.40;;;6.67;100.00;95361.77;655729;215;23648;-71
2021/04/20 05:40:48;;;;;;;39.83;33.38;;;5.80;1.40;;;6.56;100.00;95362.61;664815;211;31428;-71
2021/04/20 05:43:19;;;;;;;34.50;28.03;;;5.70;1.40;;;6.66;100.00;95356.38;668765;211;29117;-72
2021/04/20 05:45:47;;;;;;;36.80;27.10;;;5.70;1.40;;;6.63;100.00;95354.84;668803;211;29726;-72
2021/04/20 05:48:16;;;;;;;31.53;24.10;;;5.70;1.40;;;6.76;100.00;95352.13;669891;211;24531;-72
2021/04/20 05:50:50;;;;;;;36.78;32.70;;;5.80;1.40;;;6.75;100.00;95349.33;636071;220;31877;-73
2021/04/20 05:55:48;;;;;;;38.42;32.47;;;5.90;1.40;;;-143.44;100.00;122422.95;619431;226;31935;-71
2021/04/20 05:58:18;;;;;;;35.33;28.80;;;5.90;1.40;;;-143.44;100.00;122422.95;614928;229;24657;-70
2021/04/20 06:00:49;;;;;;;36.90;30.00;;;6.00;1.40;;;-143.44;100.00;122422.95;616103;230;25698;-71
2021/04/20 06:03:18;;;;;;;34.20;26.23;;;6.00;1.40;;;-143.44;100.00;122422.95;615352;228;24633;-71
2021/04/20 06:05:48;;;;;;;32.90;27.27;;;6.10;1.40;;;-143.44;100.00;122422.95;614939;229;26058;-71
2021/04/20 06:08:16;;;;;;;32.67;28.27;;;6.10;1.40;;;-143.44;100.00;122422.95;616811;229;28950;-74
2021/04/20 06:10:45;;;;;;;30.83;23.77;;;6.20;1.40;;;-143.44;100.00;122422.95;615583;229;24627;-71
2021/04/20 06:13:15;;;;;;;29.40;25.00;;;6.20;1.40;;;-143.44;100.00;122422.95;614092;229;24686;-71
2021/04/20 06:15:44;;;;;;;36.55;31.48;;;6.30;1.40;;;-143.44;100.00;122422.95;607934;229;43186;-71
2021/04/20 06:18:13;;;;;;;29.90;25.93;;;6.40;1.40;;;-143.44;100.00;122422.95;615451;230;24627;-71
2021/04/20 06:23:16;;;;;;;32.70;28.90;;;6.30;1.40;;;;;;644735;212;31591;-71
2021/04/20 06:25:44;;;;;;;32.37;25.47;;;6.40;1.40;;;;;;640942;221;23523;-71
2021/04/20 06:28:12;;;;;;;31.90;25.90;;;6.60;1.40;;;;;;640200;221;24576;-70
2021/04/20 06:30:40;;;;;;;31.13;26.50;;;6.70;1.40;;;;;;639976;221;24780;-72
2021/04/20 06:35:50;;;;;;;30.80;27.45;;;6.80;1.40;;;7.78;100.00;95369.84;646404;214;31577;-73
2021/04/20 06:38:19;;;;;;;28.27;23.33;;;6.90;1.40;;;8.08;100.00;95368.48;638428;221;23482;-72
2021/04/20 06:40:49;;;;;;;31.27;27.67;;;7.10;1.40;;;8.15;100.00;95370.50;634472;220;31772;-73
2021/04/20 06:43:18;;;;;;;27.50;24.13;;;7.10;1.40;;;8.21;100.00;95375.14;640638;220;23464;-73
2021/04/20 06:46:06;;;;;;;26.60;23.70;;;7.20;1.40;;;8.34;100.00;95376.13;639229;220;24542;-72
2021/04/20 06:48:49;;;;;;;31.02;26.92;;;7.40;1.40;;;8.57;100.00;95381.08;619591;226;42624;-72
2021/04/20 06:51:19;;;;;;;26.43;22.87;;;7.40;1.40;;;8.64;99.62;95378.92;616635;230;24699;-72
2021/04/20 06:53:49;;;;;;;28.13;23.23;;;7.40;1.40;;;8.99;99.04;95380.14;613629;230;25886;-73
2021/04/20 06:56:27;;;;;;;25.47;21.57;;;7.60;1.40;;;9.06;97.87;95382.41;615087;229;24617;-72
2021/04/20 06:59:13;;;;;;;26.60;22.40;;;7.70;1.40;;;8.94;96.86;95379.20;620988;229;25690;-73
2021/04/20 07:01:55;;;;;;;29.17;26.00;;;7.60;1.40;;;8.87;99.28;95380.80;646428;216;42220;-72
2021/04/20 07:04:50;;;;;;;28.00;25.10;;;7.50;1.40;;;8.71;99.05;95380.49;642359;220;23496;-72
2021/04/20 07:10:30;;;;;;;28.90;25.80;;;7.40;1.40;;;9.03;97.89;95382.72;645040;212;31590;-73
2021/04/20 07:13:13;;;;;;;28.40;25.30;;;7.60;1.40;;;9.23;97.44;95385.48;645837;216;32381;-71
2021/04/20 07:18:40;;;;;;;28.50;25.02;;;7.90;1.40;;;10.00;91.33;95386.61;645399;216;31614;-72
2021/04/20 07:21:20;;;;;;;26.63;23.93;;;8.10;1.40;;;10.56;91.06;95383.47;647097;212;31625;-72
2021/04/20 07:24:13;;;;;;;24.33;21.73;;;8.50;1.40;;;10.81;89.71;95389.16;639875;221;24525;-71
2021/04/20 07:27:22;;;;;;;25.60;22.90;;;8.70;1.40;;;10.91;86.90;95387.67;644929;216;31715;-72
2021/04/20 07:30:18;;;;;;;26.17;23.40;;;8.70;1.40;;;10.45;85.85;95385.91;646811;212;31635;-71
2021/04/20 07:32:52;;;;;;;22.50;19.77;;;8.70;1.40;;;10.58;86.64;95385.95;641549;220;24609;-71
2021/04/20 07:35:51;;;;;;;22.13;19.73;;;8.90;1.40;;;10.90;84.72;95384.11;619577;226;32132;-70
2021/04/20 07:38:40;;;;;;;25.17;20.80;;;9.00;1.40;;;10.91;84.01;95387.19;615766;229;24938;-71
2021/04/20 07:41:30;;;;;;;23.10;20.40;;;8.90;1.40;;;10.55;84.48;95389.27;646197;216;31757;-71
2021/04/20 07:46:56;;;;;;;22.52;20.23;;;8.40;1.40;;;10.46;84.71;95384.98;647168;212;31629;-70
2021/04/20 07:49:34;;;;;;;23.30;19.37;;;8.60;1.40;;;10.60;84.43;95385.39;639221;220;26672;-72
2021/04/20 07:52:07;;;;;;;21.37;19.13;;;8.70;1.40;;;10.33;84.35;95384.05;640411;221;24517;-74
2021/04/20 07:54:54;;;;;;;21.87;18.57;;;8.70;1.40;;;10.69;84.43;95385.36;639984;221;24668;-72
2021/04/20 07:57:33;;;;;;;23.43;21.03;;;8.80;1.40;;;11.30;83.75;95385.02;646650;212;32536;-71
2021/04/20 08:00:12;;;;;;;22.13;19.83;;;8.90;1.40;;;11.74;82.65;95384.77;640856;221;24519;-71
2021/04/20 08:02:46;;;;;;;21.00;18.80;;;9.30;1.40;;;11.13;79.24;95384.34;640904;221;24516;-71
2021/04/20 08:05:28;;;;;;;18.90;16.53;;;9.10;1.40;;;11.31;78.59;95383.59;640003;221;24578;-72
2021/04/20 08:08:15;;;;;;;18.93;17.03;;;9.20;1.40;;;10.92;79.12;95386.84;640797;221;24581;-72
2021/04/20 08:10:58;;;;;;;21.80;19.70;;;9.00;1.40;;;10.99;81.05;95385.50;646335;216;31603;-70
2021/04/20 08:14:00;;;;;;;21.53;17.67;;;9.10;1.40;;;11.00;79.99;95386.03;640108;220;24537;-72
2021/04/20 08:16:40;;;;;;;20.50;18.50;;;9.20;1.40;;;11.60;78.93;95391.90;614393;226;32400;-71
2021/04/20 08:19:28;;;;;;;19.87;17.87;;;9.30;1.40;;;11.72;77.20;95396.98;605641;233;24665;-71
2021/04/20 08:22:07;;;;;;;20.60;18.50;;;9.50;1.40;;;11.69;78.27;95390.13;645129;216;31583;-73
2021/04/20 08:27:18;;;;;;;20.15;18.23;;;9.20;1.40;;;11.13;78.26;95389.34;645443;216;31675;-71
2021/04/20 08:29:47;;;;;;;21.30;18.17;;;9.30;1.40;;;10.99;76.43;95388.00;643232;219;23467;-71
2021/04/20 08:32:17;;;;;;;18.43;16.53;;;9.20;1.40;;;12.04;76.91;95388.22;670793;211;24442;-73
2021/04/20 08:35:51;;;;;;;20.27;18.17;;;9.80;1.40;;;11.68;74.37;95391.25;646051;212;31638;-72
2021/04/20 08:43:53;;;;;;;19.60;17.60;;;9.30;1.40;;;11.60;74.70;95390.80;646743;212;31594;-71
2021/04/20 08:46:55;;;;;;;18.80;17.00;;;9.50;1.40;;;11.64;75.66;95388.80;641381;220;29857;-71
2021/04/20 08:49:43;;;;;;;20.70;18.60;;;9.60;1.40;;;11.98;75.94;95386.86;646502;212;31603;-72
2021/04/20 08:52:37;;;;;;;20.53;18.00;;;9.80;1.40;;;12.17;74.26;95385.31;640770;221;23484;-72
2021/04/20 08:55:36;;;;;;;20.00;18.00;;;9.90;1.40;;;11.90;75.22;95387.41;646574;216;31757;-71
2021/04/20 08:58:23;;;;;;;19.10;17.30;;;9.70;1.40;;;12.02;76.57;95383.45;617610;226;31981;-73
2021/04/20 09:01:02;;;;;;;19.53;17.63;;;9.90;1.40;;;11.91;75.54;95384.19;616693;229;24655;-72
2021/04/20 09:03:39;;;;;;;19.40;15.83;;;9.80;1.40;;;12.26;73.95;95384.93;615751;230;24646;-72
2021/04/20 09:06:08;;;;;;;19.10;17.10;;;9.90;1.40;;;11.47;75.42;95388.26;615911;230;25766;-72
2021/04/20 09:08:39;;;;;;;19.37;17.27;;;9.60;1.40;;;11.39;77.54;95390.30;616256;230;24714;-72
2021/04/20 09:11:09;;;;;;;19.03;17.03;;;9.70;1.40;;;12.23;75.69;95384.60;615521;230;24641;-72
2021/04/20 09:13:58;;;;;;;17.73;15.83;;;10.60;1.40;;;13.16;71.23;95376.10;614714;230;24773;-72
2021/04/20 09:19:41;;;;;;;18.75;16.95;;;11.70;1.40;;;13.78;68.64;95378.28;646688;212;31751;-71
2021/04/20 09:22:37;;;;;;;19.77;17.73;;;11.50;1.40;;;13.07;68.58;95380.07;642958;219;23472;-71
2021/04/20 09:28:08;;;;;;;19.27;17.37;;;10.80;1.40;;;12.13;70.87;95382.12;644771;212;31652;-72
2021/04/20 09:30:54;;;;;;;18.60;16.70;;;10.30;1.40;;;12.79;71.55;95374.39;640898;220;23531;-71
2021/04/20 09:35:51;;;;;;;19.17;17.27;;;10.70;1.40;;;12.42;70.85;95380.13;646520;216;42889;-72
2021/04/20 09:38:20;;;;;;;18.30;16.50;;;10.60;1.40;;;13.29;68.84;95377.52;635696;220;31803;-72
2021/04/20 09:40:49;;;;;;;20.03;18.03;;;11.10;1.40;;;12.99;67.21;95378.86;657619;215;23494;-73
2021/04/20 09:43:34;;;;;;;19.23;16.97;;;11.20;1.40;;;13.82;68.42;95375.13;654248;216;23471;-72
2021/04/20 09:51:36;;;;;;;18.60;16.90;;;16.00;1.40;;;18.53;51.45;95373.63;645968;216;31632;-71
2021/04/20 09:54:11;;;;;;;18.83;17.10;;;15.70;1.40;;;17.08;53.12;95381.84;641323;220;23563;-72
2021/04/20 09:59:17;;;;;;;18.40;16.70;;;12.30;1.40;;;14.82;60.32;95371.79;645594;215;31657;-72
2021/04/20 10:02:05;;;;;;;19.05;17.25;;;12.00;1.40;;;14.81;62.99;95377.20;635098;221;31857;-71
2021/04/20 10:07:34;;;;;;;19.33;17.47;;;11.30;1.40;;;14.36;62.15;95376.57;646556;216;31631;-71
2021/04/20 10:10:15;;;;;;;20.70;18.43;;;11.70;1.40;;;13.86;64.78;95379.62;641410;220;23567;-71
2021/04/20 10:13:18;;;;;;;19.13;16.77;;;11.60;1.40;;;14.17;63.79;95375.83;641145;220;24564;-70
2021/04/20 10:16:11;;;;;;;17.48;15.88;;;12.00;1.40;;;15.04;60.23;95373.46;630339;217;31801;-71
2021/04/20 10:21:29;;;;;;;17.75;16.15;;;11.60;1.40;;;13.71;62.40;95374.34;646358;216;31709;-73
2021/04/20 10:24:14;;;;;;;17.83;16.12;;;11.40;1.40;;;15.66;59.11;95372.22;638234;220;31812;-73
2021/04/20 10:26:47;;;;;;;17.30;15.70;;;12.50;1.40;;;14.74;57.68;95372.94;668479;211;22730;-73
2021/04/20 10:29:23;;;;;;;16.80;15.00;;;12.70;1.40;;;15.41;59.84;95369.19;670641;211;29756;-73
2021/04/20 10:32:04;;;;;;;16.43;14.73;;;13.20;1.40;;;16.63;53.27;95365.54;644535;219;24156;-72
2021/04/20 10:35:57;;;;;;;14.27;12.98;;;14.70;1.40;;;17.61;50.42;95363.66;646044;216;31659;-73
2021/04/20 10:38:28;;;;;;;15.47;14.07;;;14.30;1.40;;;16.42;51.08;95361.38;653996;215;23455;-73
2021/04/20 10:40:58;;;;;;;14.17;12.97;;;13.30;1.40;;;18.04;52.13;95353.28;655559;216;23590;-73
2021/04/20 10:43:27;;;;;;;14.73;13.32;;;14.00;1.40;;;17.99;50.71;95353.33;637088;220;31830;-72
2021/04/20 10:45:56;;;;;;;15.00;13.70;;;14.30;1.40;;;17.79;49.08;95349.64;663835;211;31493;-73
2021/04/20 10:48:26;;;;;;;15.03;13.63;;;14.40;1.40;;;18.64;48.43;95346.94;667434;211;22445;-73
2021/04/20 10:50:54;;;;;;;16.50;14.90;;;14.70;1.40;;;18.94;48.40;95345.67;670301;211;23498;-72
2021/04/20 10:53:25;;;;;;;13.33;11.93;;;14.70;1.40;;;15.96;49.65;95348.96;668451;211;29789;-74
2021/04/20 10:55:54;;;;;;;13.33;12.13;;;13.00;1.40;;;15.93;50.63;95351.84;655567;216;23560;-73
2021/04/20 10:58:24;;;;;;;12.17;11.00;;;12.50;1.40;;;15.37;50.61;95351.11;667229;211;23448;-73
2021/04/20 11:00:53;;;;;;;13.20;12.10;;;12.30;1.40;;;15.18;52.58;95345.89;667487;211;23463;-73
2021/04/20 11:03:24;;;;;;;14.10;12.87;;;12.70;1.40;;;14.85;52.40;95345.46;668285;211;23436;-73
2021/04/20 11:05:53;;;;;;;13.07;11.87;;;12.80;1.40;;;15.36;52.47;95346.21;669156;211;23458;-73
2021/04/20 11:08:24;;;;;;;13.90;12.60;;;12.90;1.40;;;14.35;53.64;95346.20;668424;211;23495;-73
2021/04/20 11:10:53;;;;;;;13.40;12.10;;;11.90;1.40;;;13.65;56.57;95341.60;648012;216;31628;-73
2021/04/20 11:13:37;;;;;;;15.53;14.20;;;11.50;1.40;;;14.27;56.00;95342.36;654309;216;23701;-72
2021/04/20 11:16:06;;;;;;;13.80;12.50;;;12.10;1.40;;;13.70;57.71;95340.22;665202;211;31975;-72
2021/04/20 11:18:36;;;;;;;13.50;12.30;;;11.70;1.40;;;14.19;58.40;95336.80;654449;216;29926;-72
2021/04/20 11:21:07;;;;;;;15.67;12.50;;;11.90;1.40;;;13.92;58.28;95332.02;654906;216;23494;-73
2021/04/20 11:23:34;;;;;;;13.43;12.13;;;11.90;1.40;;;14.06;58.30;95334.23;654537;215;23490;-73
2021/04/20 11:28:49;;;;;;;14.77;13.27;;;12.60;1.40;;;14.61;56.38;95328.44;647019;216;31597;-70
2021/04/20 11:31:28;;;;;;;14.87;13.30;;;12.20;1.40;;;13.99;57.95;95333.88;641580;220;22494;-72
2021/04/20 11:35:59;;;;;;;14.75;13.35;;;11.90;1.40;;;14.15;57.36;95330.85;645991;216;31665;-72
2021/04/20 11:38:28;;;;;;;16.23;14.53;;;12.00;1.40;;;13.47;59.26;95337.85;641324;221;29867;-71
2021/04/20 11:41:02;;;;;;;14.10;12.80;;;11.60;1.40;;;13.54;59.79;95332.03;640793;220;23544;-71
2021/04/20 11:43:30;;;;;;;15.20;13.70;;;11.80;1.40;;;15.16;54.90;95326.37;635384;220;31763;-72
2021/04/20 11:45:59;;;;;;;14.60;13.30;;;13.10;1.40;;;15.36;54.45;95328.72;640063;221;22507;-72
2021/04/20 11:48:32;;;;;;;14.80;13.40;;;13.30;1.40;;;16.29;51.28;95323.20;634785;220;32047;-73
2021/04/20 11:51:00;;;;;;;13.40;12.10;;;14.70;1.40;;;16.54;50.11;95322.13;639908;220;23561;-72
2021/04/20 11:53:29;;;;;;;14.60;13.30;;;14.20;1.40;;;16.09;51.66;95322.73;633333;221;32192;-72
2021/04/20 11:55:59;;;;;;;14.73;13.33;;;13.90;1.40;;;19.46;47.54;95315.22;639274;221;22489;-72
2021/04/20 11:58:32;;;;;;;15.00;13.70;;;16.50;1.40;;;21.84;42.02;95313.53;654908;216;23513;-73
2021/04/20 12:01:10;;;;;;;13.07;11.88;;;19.00;1.40;;;22.65;40.22;95311.05;648005;215;31718;-72
2021/04/20 12:03:54;;;;;;;14.30;13.13;;;19.50;1.40;;;18.78;44.22;95312.13;641076;220;24706;-73